VTBDVTUJ

Guest
Details From VTBD - Bangkok Don Mueang Intl
To VTUJ - Surin
Flight Number -
Tags Generated
Created
Modified
Stats Distance 178 nm / 330 km
Max Altitude 0 ft / 0 m
Waypoints 2
Social Downloads 0
Likes 0
Share VATSIM

Download

Looking for another format? Having issues loading an existing format? Contact us
Advertisement - Login to hide

Notes

Generated

Route

VTBD VTUJ

ID Type Via Altitude Latitude Longitude Leg Dist Tot Dist Heading (true) Name
O VTBD APT - 0 ft / 0 m 13.89960˚ 100.60162˚ - 0 nm - -
O VTUJ APT - 0 ft / 0 m 14.86136˚ 103.49732˚ 178 nm 178 nm 71° / 71° -

Altitude Profile

Advertisement - Login to hide

Weather


0- 5 10 15 20 25 30 35+ Temperature / ° C

Clouds and Precipitation
Forecast for 2018-05-23 06:00 UTC. Updated 2 hours ago

Ground ~20,000 ft ~40,000 ft Winds

VTBD

Details ICAO VTBD (DMK)
Name Bangkok Don Mueang Intl
Region Thailand
Timezone Asia/Bangkok (UTC+7.0)
Stats Elevation 9 ft / 3 m (AMSL)
Location 13.912597° 100.606799°
Runways 2
Magnetic Variation 0.579° W

METAR

VTBD 230700Z VRB04KT 9999 FEW025TCU SCT030 34/24 Q1007 NOSIG

Decode

TAF

TAF VTBD 230500Z 2306/2412 16005KT 9999 FEW020 TEMPO 2306/2312 VRB10KT 5000 TSRA FEW018CB SCT020 BKN100 BECMG 2318/2320 10005KT BECMG 2402/2404 16005KT TEMPO 2404/2410 VRB10KT 5000 TSRA FEW018CB SCT020 BKN100

Decode

Departure Runways

ID Width Length Bearing (true) Bearing (mag) Surface Threshold Offset Overrun Length
03L 197 ft / 60 m 12,186 ft / 3,714 m 28.55° 29.13° Asphalt 0 ft / 0 m 492 ft / 150 m
03R 148 ft / 45 m 11,520 ft / 3,511 m 28.50° 29.08° Asphalt 0 ft / 0 m 348 ft / 106 m
21L 148 ft / 45 m 11,520 ft / 3,511 m 208.50° 209.08° Asphalt 1,145 ft / 349 m 180 ft / 55 m
21R 197 ft / 60 m 12,186 ft / 3,714 m 208.55° 209.13° Asphalt 0 ft / 0 m 492 ft / 150 m

VTUJ

Details ICAO VTUJ
Name Surin
Region Thailand
Timezone Asia/Bangkok (UTC+7.0)
Stats Elevation 478 ft / 146 m (AMSL)
Location 14.868263° 103.498255°
Runways 1
Magnetic Variation 0.727° W

METAR

Not found

TAF

TAF VTUJ 230500Z 2306/2406 17005KT 9000 FEW025 SCT100 BECMG 2320/2322 4000 BR BECMG 2400/2402 8000 NSW

Decode

Destination Runways

ID Width Length Bearing (true) Bearing (mag) Surface Threshold Offset Overrun Length
01 115 ft / 35 m 5,083 ft / 1,549 m 7.47° 8.20° Asphalt 0 ft / 0 m 590 ft / 180 m
19 115 ft / 35 m 5,083 ft / 1,549 m 187.47° 188.20° Asphalt 0 ft / 0 m 0 ft / 0 m